Time;durP1;ratioP1;P1;durP2;ratioP2;P2;SDS_P1;SDS_P2;PMS_P1;PMS_P2;Temp;Humidity;BMP_temperature;BMP_pressure;BME280_temperature;BME280_humidity;BME280_pressure;Samples;Min_cycle;Max_cycle;Signal;HPM_P1;HPM_P2
2021/03/31 00:00:47;;;;;;;33.45;19.55;;;9.10;75.10;;;;;;5092325;28;20036;-55
2021/03/31 00:03:15;;;;;;;28.70;18.85;;;9.10;74.70;;;;;;5075851;28;20101;-56
2021/03/31 00:05:41;;;;;;;30.02;19.23;;;9.00;74.80;;;;;;5093342;28;20060;-55
2021/03/31 00:08:07;;;;;;;26.75;17.90;;;9.00;74.70;;;;;;5093417;28;20445;-54
2021/03/31 00:10:41;;;;;;;25.92;17.60;;;9.00;74.90;;;;;;5075640;28;20044;-56
2021/03/31 00:13:08;;;;;;;26.42;17.52;;;8.90;75.10;;;;;;5094054;28;20040;-56
2021/03/31 00:15:33;;;;;;;28.02;17.85;;;8.90;75.00;;;;;;5075453;28;20040;-56
2021/03/31 00:17:59;;;;;;;30.55;18.58;;;8.90;75.30;;;;;;5090743;28;20036;-55
2021/03/31 00:20:25;;;;;;;28.13;18.42;;;8.90;75.30;;;;;;5092426;28;20519;-53
2021/03/31 00:22:51;;;;;;;28.35;18.65;;;8.90;75.40;;;;;;5093132;28;20055;-55
2021/03/31 00:25:18;;;;;;;30.77;19.35;;;8.90;75.20;;;;;;5098502;28;20488;-56
2021/03/31 00:27:44;;;;;;;32.85;19.25;;;8.90;74.70;;;;;;5086579;28;20047;-56
2021/03/31 00:30:17;;;;;;;31.27;18.75;;;8.80;74.50;;;;;;5093314;28;20544;-55
2021/03/31 00:32:44;;;;;;;30.73;19.13;;;8.80;74.60;;;;;;5093850;28;20059;-55
2021/03/31 00:35:11;;;;;;;30.02;19.40;;;8.80;74.80;;;;;;5091935;28;20508;-55
2021/03/31 00:37:37;;;;;;;30.17;18.85;;;8.70;74.80;;;;;;5093106;28;20461;-56
2021/03/31 00:40:13;;;;;;;28.48;18.27;;;8.70;74.90;;;;;;5092698;28;20553;-56
2021/03/31 00:42:42;;;;;;;29.02;18.13;;;8.70;75.30;;;;;;5093082;28;20484;-56
2021/03/31 00:45:09;;;;;;;27.58;17.77;;;8.60;76.00;;;;;;5074170;28;20138;-56
2021/03/31 00:47:35;;;;;;;25.48;16.75;;;8.60;76.70;;;;;;5091380;28;20388;-55
2021/03/31 00:50:01;;;;;;;24.00;16.25;;;8.50;76.90;;;;;;5093414;28;20044;-56
2021/03/31 00:52:27;;;;;;;31.02;17.58;;;8.50;76.70;;;;;;5092860;28;20037;-55
2021/03/31 00:54:53;;;;;;;30.98;18.17;;;8.50;76.30;;;;;;5092889;28;20059;-54
2021/03/31 00:57:20;;;;;;;29.77;18.45;;;8.50;76.10;;;;;;5091572;28;20036;-55
2021/03/31 00:59:46;;;;;;;30.77;17.83;;;8.60;73.90;;;;;;5091317;28;20515;-55
2021/03/31 01:02:11;;;;;;;29.90;17.77;;;8.60;74.60;;;;;;5092941;28;20043;-55
2021/03/31 01:04:37;;;;;;;29.83;18.00;;;8.50;74.90;;;;;;5092510;28;20046;-54
2021/03/31 01:07:03;;;;;;;35.85;17.70;;;8.60;75.10;;;;;;5092257;28;20035;-52
2021/03/31 01:09:30;;;;;;;30.55;18.88;;;8.50;75.40;;;;;;5092346;28;20538;-51
2021/03/31 01:12:11;;;;;;;31.85;17.67;;;8.50;75.70;;;;;;5092933;28;20048;-53
2021/03/31 01:15:02;;;;;;;30.48;17.73;;;8.40;75.90;;;;;;5092205;28;20040;-53
2021/03/31 01:17:35;;;;;;;28.00;17.25;;;8.30;76.40;;;;;;5090349;28;20085;-53
2021/03/31 01:20:05;;;;;;;26.58;17.33;;;8.30;76.60;;;;;;5091829;28;20111;-52
2021/03/31 01:23:13;;;;;;;29.60;17.17;;;8.20;77.00;;;;;;5092037;28;20044;-53
2021/03/31 01:25:56;;;;;;;28.73;17.23;;;8.20;77.20;;;;;;5084363;28;20054;-52
2021/03/31 01:28:22;;;;;;;;;;;8.10;77.80;;;;;;5091997;28;20032;-54
2021/03/31 01:31:10;;;;;;;28.02;17.50;;;8.10;77.90;;;;;;5091135;28;19923;-52
2021/03/31 01:33:59;;;;;;;26.23;16.73;;;8.10;78.10;;;;;;5089781;28;20548;-52
2021/03/31 01:36:27;;;;;;;27.35;16.45;;;8.00;78.20;;;;;;5092083;28;20044;-53
2021/03/31 01:38:58;;;;;;;26.25;17.00;;;7.90;78.50;;;;;;5090337;28;20169;-53
2021/03/31 01:41:25;;;;;;;32.67;18.15;;;7.90;78.70;;;;;;5091208;28;20044;-54
2021/03/31 01:43:55;;;;;;;32.45;19.77;;;7.90;78.90;;;;;;5090934;28;20050;-51
2021/03/31 01:46:32;;;;;;;31.58;19.40;;;7.90;78.40;;;;;;5091660;28;20044;-53
2021/03/31 01:49:02;;;;;;;35.58;20.02;;;7.90;78.00;;;;;;5088673;28;20111;-52
2021/03/31 01:51:30;;;;;;;30.52;19.50;;;7.80;78.10;;;;;;5091954;28;20439;-53
2021/03/31 01:53:57;;;;;;;32.92;19.27;;;7.80;78.10;;;;;;5091325;28;20064;-51
2021/03/31 01:56:26;;;;;;;34.75;18.48;;;7.80;77.90;;;;;;5090812;28;20036;-51
2021/03/31 01:58:53;;;;;;;34.38;18.75;;;7.80;77.90;;;;;;5091500;28;20425;-51
2021/03/31 02:01:20;;;;;;;31.85;18.25;;;7.70;78.20;;;;;;5091631;28;20122;-52
2021/03/31 02:03:46;;;;;;;27.23;18.27;;;7.70;78.10;;;;;;5090563;28;20093;-51
2021/03/31 02:06:13;;;;;;;31.10;17.77;;;7.70;78.20;;;;;;5090272;28;20048;-50
2021/03/31 02:08:42;;;;;;;31.83;18.30;;;7.70;78.50;;;;;;5091653;28;20504;-53
2021/03/31 02:11:09;;;;;;;29.55;17.65;;;7.70;78.80;;;;;;5091202;28;20040;-50
2021/03/31 02:13:35;;;;;;;28.67;17.63;;;7.70;79.00;;;;;;5091194;28;20044;-53
2021/03/31 02:16:02;;;;;;;28.42;17.55;;;7.70;78.80;;;;;;5083371;28;20039;-54
2021/03/31 02:18:32;;;;;;;32.20;18.00;;;7.70;78.40;;;;;;5090013;28;20039;-53
2021/03/31 02:20:59;;;;;;;30.23;17.05;;;7.60;78.60;;;;;;5091006;28;20032;-54
2021/03/31 02:23:27;;;;;;;29.15;18.13;;;7.60;78.50;;;;;;5088182;28;20040;-51
2021/03/31 02:25:54;;;;;;;33.25;18.55;;;7.60;78.30;;;;;;5090232;28;20566;-53
2021/03/31 02:28:21;;;;;;;29.13;18.35;;;7.60;78.60;;;;;;5089115;28;20146;-50
2021/03/31 02:30:47;;;;;;;28.80;18.17;;;7.60;78.80;;;;;;5056858;28;20047;-52
2021/03/31 02:33:14;;;;;;;30.23;18.75;;;7.60;78.90;;;;;;5090172;28;20040;-52
2021/03/31 02:35:42;;;;;;;30.30;17.95;;;7.60;79.10;;;;;;5090221;28;20051;-53
2021/03/31 02:38:13;;;;;;;30.02;18.50;;;7.60;78.90;;;;;;5090325;28;20040;-55
2021/03/31 02:40:42;;;;;;;35.72;17.83;;;7.50;78.80;;;;;;5087915;28;20043;-52
2021/03/31 02:43:12;;;;;;;31.20;18.48;;;7.60;78.70;;;;;;5091192;28;20489;-52
2021/03/31 02:45:39;;;;;;;30.98;17.88;;;7.60;78.70;;;;;;5090316;28;20036;-53
2021/03/31 02:48:06;;;;;;;31.55;18.52;;;7.50;78.70;;;;;;5090542;28;20040;-53
2021/03/31 02:50:33;;;;;;;32.92;18.75;;;7.60;78.60;;;;;;5088701;28;20111;-49
2021/03/31 02:53:00;;;;;;;30.58;17.92;;;7.60;78.30;;;;;;5090576;28;20063;-52
2021/03/31 02:55:26;;;;;;;29.45;18.15;;;7.60;78.40;;;;;;5089408;28;20055;-50
2021/03/31 02:57:53;;;;;;;29.70;18.05;;;7.60;78.50;;;;;;5090084;28;20153;-53
2021/03/31 03:00:20;;;;;;;29.08;18.08;;;7.60;78.50;;;;;;5091070;28;20040;-51
2021/03/31 03:02:47;;;;;;;30.90;19.02;;;7.60;78.70;;;;;;5089283;28;20068;-53
2021/03/31 03:05:17;;;;;;;31.58;19.20;;;7.60;78.60;;;;;;5089428;28;20047;-53
2021/03/31 03:07:42;;;;;;;29.95;19.42;;;7.50;78.30;;;;;;5091864;28;20044;-53
2021/03/31 03:10:10;;;;;;;30.98;18.77;;;7.50;78.40;;;;;;5094719;28;20044;-53
2021/03/31 03:12:43;;;;;;;32.00;19.05;;;7.40;78.30;;;;;;5075856;28;20064;-53
2021/03/31 03:15:12;;;;;;;31.60;18.27;;;7.50;78.00;;;;;;5082947;28;20484;-53
2021/03/31 03:17:39;;;;;;;34.08;19.75;;;7.50;77.80;;;;;;5093492;28;20032;-56
2021/03/31 03:20:10;;;;;;;32.50;18.55;;;7.50;77.10;;;;;;5094477;28;20141;-55
2021/03/31 03:22:39;;;;;;;32.17;20.02;;;7.60;76.60;;;;;;5094452;28;20051;-56
2021/03/31 03:25:08;;;;;;;31.77;18.45;;;7.60;76.30;;;;;;5093865;28;20028;-54
2021/03/31 03:27:36;;;;;;;30.50;18.15;;;7.60;76.50;;;;;;5093729;28;20044;-55
2021/03/31 03:30:06;;;;;;;30.23;18.77;;;7.60;76.50;;;;;;5093524;28;20049;-55
2021/03/31 03:32:33;;;;;;;30.77;19.10;;;7.60;76.30;;;;;;5094433;28;20044;-54
2021/03/31 03:35:00;;;;;;;32.65;17.55;;;7.70;76.20;;;;;;5093732;28;20031;-54
2021/03/31 03:37:25;;;;;;;31.70;18.45;;;7.60;76.40;;;;;;5093624;28;20038;-54
2021/03/31 03:39:51;;;;;;;34.67;19.23;;;7.60;76.80;;;;;;5093698;28;20040;-55
2021/03/31 03:42:18;;;;;;;31.95;18.17;;;7.60;77.00;;;;;;5094101;28;20047;-54
2021/03/31 03:44:44;;;;;;;30.75;18.05;;;7.50;77.20;;;;;;5093611;28;20047;-55
2021/03/31 03:47:10;;;;;;;29.80;18.55;;;7.50;77.30;;;;;;5093630;28;20032;-54
2021/03/31 03:49:39;;;;;;;30.27;18.13;;;7.50;77.40;;;;;;5092559;28;20048;-54
2021/03/31 03:52:06;;;;;;;32.10;19.30;;;7.40;77.30;;;;;;5093056;28;20043;-53
2021/03/31 03:54:32;;;;;;;30.17;18.33;;;7.40;76.80;;;;;;5093681;28;20039;-55
2021/03/31 03:56:58;;;;;;;30.33;18.58;;;7.40;76.30;;;;;;5093212;28;20048;-53
2021/03/31 03:59:27;;;;;;;34.15;19.52;;;7.40;76.40;;;;;;5093668;28;20118;-55
2021/03/31 04:01:53;;;;;;;32.58;17.80;;;7.40;76.30;;;;;;5088227;28;20059;-56
2021/03/31 04:04:20;;;;;;;30.42;18.15;;;7.30;76.40;;;;;;5093911;28;20036;-55
2021/03/31 04:06:46;;;;;;;33.60;18.88;;;7.30;76.60;;;;;;5092792;28;20040;-54
2021/03/31 04:09:12;;;;;;;31.02;19.02;;;7.20;76.90;;;;;;5092795;28;20072;-54
2021/03/31 04:11:40;;;;;;;30.50;18.38;;;7.20;77.30;;;;;;5092656;28;20559;-54
2021/03/31 04:14:07;;;;;;;31.60;18.42;;;7.20;77.80;;;;;;5092114;28;20128;-55
2021/03/31 04:16:34;;;;;;;29.08;18.27;;;7.20;78.20;;;;;;5093091;28;20032;-54
2021/03/31 04:19:07;;;;;;;30.17;18.00;;;7.10;78.50;;;;;;5092868;28;20564;-55
2021/03/31 04:21:35;;;;;;;30.85;17.77;;;7.10;78.90;;;;;;5093305;28;20032;-54
2021/03/31 04:24:01;;;;;;;28.85;17.92;;;7.00;79.00;;;;;;5092636;28;20044;-55
2021/03/31 04:26:31;;;;;;;33.75;19.10;;;7.00;79.10;;;;;;5092675;28;20043;-55
2021/03/31 04:28:57;;;;;;;29.40;17.50;;;6.90;79.60;;;;;;5092958;28;20466;-56
2021/03/31 04:31:26;;;;;;;33.65;19.63;;;6.90;79.70;;;;;;5092791;28;20036;-55
2021/03/31 04:33:53;;;;;;;30.63;18.40;;;6.80;79.80;;;;;;5093117;28;20074;-55
2021/03/31 04:36:19;;;;;;;36.38;20.25;;;6.80;80.20;;;;;;5092407;28;20153;-55
2021/03/31 04:38:47;;;;;;;34.53;20.00;;;6.80;80.10;;;;;;5090961;28;20060;-55
2021/03/31 04:41:13;;;;;;;33.33;19.67;;;6.70;80.00;;;;;;5092904;28;20040;-55
2021/03/31 04:43:39;;;;;;;37.67;19.67;;;6.70;79.90;;;;;;5087096;28;20051;-55
2021/03/31 04:46:08;;;;;;;33.30;19.10;;;6.70;80.20;;;;;;5081565;28;20036;-55
2021/03/31 04:48:35;;;;;;;34.85;19.35;;;6.70;80.30;;;;;;5092193;28;20110;-55
2021/03/31 04:51:02;;;;;;;31.40;19.13;;;6.60;80.20;;;;;;5092931;28;20480;-55
2021/03/31 04:53:28;;;;;;;31.77;19.75;;;6.60;80.30;;;;;;5092103;28;20036;-53
2021/03/31 04:55:54;;;;;;;37.15;20.13;;;6.50;80.30;;;;;;5092300;28;20078;-53
2021/03/31 04:58:19;;;;;;;34.75;18.85;;;6.50;80.50;;;;;;5092328;28;20435;-51
2021/03/31 05:00:45;;;;;;;31.15;18.27;;;6.50;80.50;;;;;;5091832;28;20115;-52
2021/03/31 05:03:11;;;;;;;28.95;18.45;;;6.50;80.90;;;;;;5092347;28;20560;-52
2021/03/31 05:05:37;;;;;;;26.77;17.23;;;6.50;80.80;;;;;;5092159;28;20044;-53
2021/03/31 05:08:02;;;;;;;32.58;19.55;;;6.50;80.70;;;;;;5090915;28;20039;-52
2021/03/31 05:10:28;;;;;;;30.50;18.15;;;6.50;80.90;;;;;;5091837;28;20043;-53
2021/03/31 05:12:54;;;;;;;33.53;18.83;;;6.50;81.10;;;;;;5092376;28;20032;-51
2021/03/31 05:15:21;;;;;;;30.23;18.23;;;6.50;81.30;;;;;;5092489;28;20119;-54
2021/03/31 05:17:46;;;;;;;33.35;17.85;;;6.50;81.20;;;;;;5091111;28;20404;-51
2021/03/31 05:20:13;;;;;;;28.77;16.92;;;6.40;81.10;;;;;;5092738;28;20044;-52
2021/03/31 05:22:39;;;;;;;33.78;18.33;;;6.40;81.40;;;;;;5091529;28;20039;-52
2021/03/31 05:25:06;;;;;;;29.55;17.25;;;6.40;81.60;;;;;;5091651;28;20072;-52
2021/03/31 05:27:35;;;;;;;35.00;18.45;;;6.40;81.70;;;;;;5090160;28;20044;-49
2021/03/31 05:30:04;;;;;;;31.27;18.52;;;6.40;81.50;;;;;;5091338;28;20044;-52
2021/03/31 05:32:30;;;;;;;32.15;18.80;;;6.30;81.40;;;;;;5092058;28;20051;-51
2021/03/31 05:34:55;;;;;;;35.10;19.30;;;6.40;81.40;;;;;;5091583;28;20040;-52
2021/03/31 05:37:21;;;;;;;34.30;19.90;;;6.40;81.30;;;;;;5090968;28;20087;-56
2021/03/31 05:39:47;;;;;;;34.22;20.35;;;6.50;80.80;;;;;;5091779;28;20044;-51
2021/03/31 05:42:12;;;;;;;32.65;19.60;;;6.50;80.70;;;;;;5088812;28;20042;-52
2021/03/31 05:44:38;;;;;;;38.10;20.27;;;6.50;80.90;;;;;;5091408;28;20430;-53
2021/03/31 05:47:06;;;;;;;37.53;19.92;;;6.60;80.60;;;;;;5090545;28;20074;-53
2021/03/31 05:49:32;;;;;;;32.00;18.90;;;6.60;80.50;;;;;;5090526;28;20516;-53
2021/03/31 05:51:58;;;;;;;32.80;19.42;;;6.70;80.70;;;;;;5090805;28;20044;-53
2021/03/31 05:54:27;;;;;;;33.67;20.95;;;6.70;80.50;;;;;;5090377;28;20477;-52
2021/03/31 05:56:53;;;;;;;34.47;20.38;;;6.70;80.20;;;;;;5089406;28;20074;-51
2021/03/31 05:59:18;;;;;;;32.72;19.35;;;6.80;80.20;;;;;;5091148;28;20031;-53
2021/03/31 06:01:46;;;;;;;33.97;20.58;;;6.80;79.90;;;;;;5088677;28;20040;-53
2021/03/31 06:04:14;;;;;;;34.38;20.30;;;6.90;79.50;;;;;;5085352;28;20461;-51
2021/03/31 06:06:40;;;;;;;35.38;21.17;;;7.10;79.20;;;;;;5087972;28;20036;-54
2021/03/31 06:09:07;;;;;;;35.05;20.17;;;7.40;78.20;;;;;;5090862;28;20044;-49
2021/03/31 06:11:54;;;;;;;33.92;20.15;;;7.50;77.70;;;;;;5091057;28;20493;-53
2021/03/31 06:14:34;;;;;;;32.10;20.23;;;7.70;77.10;;;;;;5090084;28;20052;-50
2021/03/31 06:17:10;;;;;;;33.83;20.15;;;7.70;76.80;;;;;;5088237;28;20040;-50
2021/03/31 06:19:38;;;;;;;37.63;20.73;;;7.80;76.60;;;;;;5090949;28;20036;-53
2021/03/31 06:22:32;;;;;;;33.97;20.58;;;7.90;76.60;;;;;;5090284;28;20404;-50
2021/03/31 06:25:13;;;;;;;39.95;21.48;;;8.10;76.00;;;;;;5077593;28;20028;-53
2021/03/31 06:27:39;;;;;;;37.80;20.88;;;8.40;74.70;;;;;;5087312;28;20036;-52
2021/03/31 06:30:06;;;;;;;35.13;20.55;;;8.80;73.50;;;;;;5090095;28;20048;-50
2021/03/31 06:32:41;;;;;;;35.97;20.45;;;9.10;71.90;;;;;;5090565;28;20032;-49
2021/03/31 06:35:18;;;;;;;33.97;19.98;;;9.20;71.10;;;;;;5090403;28;20113;-51
2021/03/31 06:37:44;;;;;;;34.67;21.00;;;9.10;71.30;;;;;;5087366;28;20583;-49
2021/03/31 06:40:31;;;;;;;35.30;21.40;;;9.10;71.70;;;;;;5093816;28;20094;-53
2021/03/31 06:43:21;;;;;;;40.10;20.75;;;9.20;71.80;;;;;;5090757;28;20032;-53
2021/03/31 06:46:08;;;;;;;35.25;21.73;;;9.20;71.50;;;;;;5093076;28;20050;-53
2021/03/31 06:48:37;;;;;;;38.03;21.80;;;9.30;71.80;;;;;;5080855;28;20111;-52
2021/03/31 06:51:02;;;;;;;39.42;22.60;;;9.20;71.60;;;;;;5095187;28;20495;-52
2021/03/31 06:53:30;;;;;;;34.95;21.85;;;9.20;71.80;;;;;;5090525;28;20093;-49
2021/03/31 06:56:04;;;;;;;36.92;20.75;;;9.20;72.00;;;;;;5086478;28;20039;-50
2021/03/31 06:58:32;;;;;;;37.35;21.45;;;9.30;71.90;;;;;;5090191;28;20503;-52
2021/03/31 07:00:58;;;;;;;36.50;21.85;;;9.40;72.10;;;;;;5100687;28;20032;-50
2021/03/31 07:03:24;;;;;;;32.55;20.80;;;9.50;72.30;;;;;;5090205;28;20043;-51
2021/03/31 07:05:50;;;;;;;33.60;20.88;;;9.50;72.20;;;;;;5090231;28;20074;-53
2021/03/31 07:08:17;;;;;;;38.63;22.48;;;9.60;72.20;;;;;;5090215;28;20043;-52
2021/03/31 07:10:50;;;;;;;38.05;21.40;;;9.70;72.40;;;;;;5089200;28;20447;-52
2021/03/31 07:13:28;;;;;;;37.72;21.13;;;9.80;72.50;;;;;;5086260;28;20497;-51
2021/03/31 07:15:55;;;;;;;35.22;20.30;;;9.90;71.90;;;;;;5088896;28;20047;-49
2021/03/31 07:18:23;;;;;;;35.10;21.70;;;10.00;70.60;;;;;;5087668;28;20043;-51
2021/03/31 07:20:49;;;;;;;37.78;21.45;;;10.10;68.90;;;;;;5072539;28;20411;-52
2021/03/31 07:23:15;;;;;;;36.70;21.52;;;10.30;68.40;;;;;;5089212;28;20056;-52
2021/03/31 07:25:42;;;;;;;36.30;22.30;;;10.40;68.00;;;;;;5073025;28;20067;-51
2021/03/31 07:28:09;;;;;;;33.38;21.85;;;10.60;67.70;;;;;;5089551;28;20028;-52
2021/03/31 07:30:36;;;;;;;39.85;22.55;;;10.70;67.80;;;;;;5089075;28;20385;-54
2021/03/31 07:33:10;;;;;;;36.95;22.52;;;10.90;67.10;;;;;;5090930;28;20570;-51
2021/03/31 07:35:36;;;;;;;37.15;22.10;;;11.00;67.80;;;;;;5090180;28;20044;-50
2021/03/31 07:38:04;;;;;;;44.58;22.15;;;11.10;67.80;;;;;;5089680;28;20040;-50
2021/03/31 07:40:37;;;;;;;38.78;22.30;;;11.30;66.60;;;;;;5094260;28;20047;-52
2021/03/31 07:43:37;;;;;;;36.55;21.23;;;11.50;66.10;;;;;;5089034;28;20081;-53
2021/03/31 07:46:10;;;;;;;37.20;21.13;;;11.60;66.20;;;;;;5079941;28;20044;-49
2021/03/31 07:48:37;;;;;;;37.38;20.67;;;11.80;65.70;;;;;;5089964;28;20048;-53
2021/03/31 07:51:20;;;;;;;41.38;22.33;;;12.00;63.50;;;;;;5083980;28;20059;-54
2021/03/31 07:53:48;;;;;;;37.42;21.50;;;12.10;62.40;;;;;;5084557;28;20035;-50
2021/03/31 07:56:41;;;;;;;37.20;22.55;;;12.30;62.70;;;;;;5088210;28;20659;-53
2021/03/31 07:59:10;;;;;;;34.35;21.42;;;12.50;62.90;;;;;;5083087;28;20494;-52
2021/03/31 08:01:38;;;;;;;39.17;21.25;;;12.60;62.10;;;;;;5084680;28;20459;-52
2021/03/31 08:04:06;;;;;;;36.92;20.35;;;12.70;61.80;;;;;;5085656;28;20059;-50
2021/03/31 08:06:40;;;;;;;37.55;21.17;;;12.90;61.70;;;;;;5087407;28;20043;-51
2021/03/31 08:09:19;;;;;;;35.15;21.50;;;13.00;61.60;;;;;;5085560;28;20492;-55
2021/03/31 08:11:49;;;;;;;33.53;20.80;;;13.20;61.40;;;;;;5086093;28;20070;-52
2021/03/31 08:14:37;;;;;;;34.13;21.50;;;13.30;60.20;;;;;;5086218;28;20046;-54
2021/03/31 08:17:09;;;;;;;36.17;20.17;;;13.50;59.70;;;;;;5086520;28;20044;-52
2021/03/31 08:19:39;;;;;;;32.03;20.50;;;13.60;58.80;;;;;;5088229;28;20036;-52
2021/03/31 08:22:20;;;;;;;35.78;20.98;;;13.80;58.00;;;;;;5086807;28;20124;-54
2021/03/31 08:24:52;;;;;;;36.97;21.33;;;13.90;57.90;;;;;;5082398;28;20123;-49
2021/03/31 08:27:18;;;;;;;32.57;21.97;;;14.00;58.80;;;;;;5088256;28;20440;-53
2021/03/31 08:29:50;;;;;;;35.70;22.67;;;14.10;59.10;;;;;;5088370;28;20598;-52
2021/03/31 08:32:17;;;;;;;34.97;21.42;;;14.30;59.20;;;;;;5088276;28;20136;-52
2021/03/31 08:34:44;;;;;;;34.70;20.73;;;14.40;59.10;;;;;;5090513;28;20052;-55
2021/03/31 08:37:24;;;;;;;37.55;21.75;;;14.50;59.00;;;;;;5088004;28;20243;-52
2021/03/31 08:39:50;;;;;;;32.05;21.75;;;14.60;57.80;;;;;;5088330;28;20040;-51
2021/03/31 08:42:17;;;;;;;32.60;20.92;;;14.70;58.40;;;;;;5088011;28;20044;-54
2021/03/31 08:44:49;;;;;;;33.28;21.30;;;14.80;58.00;;;;;;5086247;28;20035;-52
2021/03/31 08:47:21;;;;;;;33.08;21.83;;;14.90;57.90;;;;;;5086928;28;20265;-50
2021/03/31 08:49:49;;;;;;;34.43;21.43;;;15.00;58.00;;;;;;5087256;28;20032;-53
2021/03/31 08:52:17;;;;;;;30.85;21.15;;;15.20;57.20;;;;;;5086977;28;20097;-54
2021/03/31 08:54:54;;;;;;;35.60;21.55;;;15.20;56.70;;;;;;5087787;28;20102;-53
2021/03/31 08:57:28;;;;;;;35.08;22.40;;;15.40;57.80;;;;;;5089571;28;20040;-52
2021/03/31 08:59:58;;;;;;;37.72;23.52;;;15.50;57.50;;;;;;5085040;28;20046;-54
2021/03/31 09:02:28;;;;;;;34.17;21.92;;;15.60;57.90;;;;;;5086172;28;20054;-50
2021/03/31 09:04:56;;;;;;;36.38;21.85;;;15.70;57.40;;;;;;5087756;28;20042;-53
2021/03/31 09:07:22;;;;;;;39.92;22.98;;;15.80;57.00;;;;;;5084875;28;20048;-55
2021/03/31 09:09:48;;;;;;;37.08;22.85;;;15.90;55.80;;;;;;5086874;28;20078;-54
2021/03/31 09:12:25;;;;;;;38.22;22.70;;;16.00;55.50;;;;;;5086301;28;20055;-50
2021/03/31 09:14:53;;;;;;;34.38;23.13;;;16.00;55.20;;;;;;5087556;28;20044;-52
2021/03/31 09:17:21;;;;;;;32.42;22.20;;;16.10;55.70;;;;;;5084310;28;20032;-53
2021/03/31 09:19:50;;;;;;;36.83;24.38;;;16.20;55.60;;;;;;5086441;28;20112;-53
2021/03/31 09:22:19;;;;;;;38.08;22.17;;;16.30;55.40;;;;;;5086978;28;20128;-52
2021/03/31 09:24:50;;;;;;;38.75;24.08;;;16.40;54.30;;;;;;5086744;28;20040;-54
2021/03/31 09:27:25;;;;;;;36.97;23.42;;;16.50;54.70;;;;;;5088262;28;20028;-54
2021/03/31 09:29:53;;;;;;;39.20;23.98;;;16.70;54.30;;;;;;5086399;28;20040;-54
2021/03/31 09:32:35;;;;;;;34.63;23.83;;;16.80;54.50;;;;;;5082423;28;20028;-53
2021/03/31 09:35:13;;;;;;;35.85;22.67;;;16.80;54.20;;;;;;5089273;28;20067;-53
2021/03/31 09:37:50;;;;;;;40.70;23.85;;;17.00;54.40;;;;;;5087933;28;20040;-54
2021/03/31 09:40:28;;;;;;;36.58;23.52;;;17.10;53.90;;;;;;5086868;28;20046;-53
2021/03/31 09:42:57;;;;;;;38.30;24.42;;;17.20;54.10;;;;;;5088460;28;20040;-55
2021/03/31 09:45:27;;;;;;;37.72;24.00;;;17.30;54.00;;;;;;5085242;28;20131;-54
2021/03/31 09:47:55;;;;;;;38.60;23.73;;;17.40;53.50;;;;;;5085578;28;20066;-54
2021/03/31 09:50:26;;;;;;;37.35;23.02;;;17.60;53.50;;;;;;5086986;28;20124;-54
2021/03/31 09:52:56;;;;;;;37.33;24.80;;;17.50;53.10;;;;;;5084594;28;20189;-54
2021/03/31 09:55:23;;;;;;;35.17;24.52;;;17.50;52.70;;;;;;5085654;28;20048;-54
2021/03/31 09:57:51;;;;;;;40.15;24.55;;;17.60;52.90;;;;;;5085051;28;20036;-54
2021/03/31 10:00:19;;;;;;;38.50;24.73;;;17.70;52.60;;;;;;5085308;28;20036;-55
2021/03/31 10:02:46;;;;;;;39.13;24.70;;;17.70;52.60;;;;;;5085118;28;20131;-53
2021/03/31 10:05:23;;;;;;;40.80;24.77;;;17.80;51.50;;;;;;5086650;28;20348;-52
2021/03/31 10:07:58;;;;;;;41.97;25.00;;;18.00;51.90;;;;;;5082243;28;20064;-54
2021/03/31 10:10:43;;;;;;;41.63;24.88;;;18.10;49.90;;;;;;5086374;28;20047;-54
2021/03/31 10:13:13;;;;;;;39.70;24.83;;;18.30;48.80;;;;;;5082881;28;20625;-54
2021/03/31 10:15:42;;;;;;;39.38;25.13;;;18.50;48.70;;;;;;5085715;28;20047;-55
2021/03/31 10:18:12;;;;;;;37.97;24.42;;;18.60;49.70;;;;;;5084182;28;20051;-53
2021/03/31 10:20:45;;;;;;;40.92;25.20;;;18.70;50.90;;;;;;5081767;28;20350;-55
2021/03/31 10:23:44;;;;;;;38.03;23.58;;;18.80;50.50;;;;;;5085060;28;20589;-54
2021/03/31 10:26:18;;;;;;;40.20;25.90;;;18.90;50.60;;;;;;5073006;28;20521;-51
2021/03/31 10:28:44;;;;;;;43.53;25.30;;;19.00;50.50;;;;;;5081446;28;20043;-51
2021/03/31 10:31:35;;;;;;;40.28;25.45;;;19.00;51.10;;;;;;5084514;28;20161;-54
2021/03/31 10:34:03;;;;;;;37.70;25.52;;;19.10;51.60;;;;;;5084619;28;20039;-52
2021/03/31 10:36:52;;;;;;;42.38;23.85;;;19.20;51.20;;;;;;5079250;28;20131;-54
2021/03/31 10:49:59;;;;;;;38.67;26.02;;;19.70;50.80;;;;;;5086658;28;20556;-54
2021/03/31 10:52:28;;;;;;;39.10;26.20;;;19.80;50.40;;;;;;5082386;28;20048;-53
2021/03/31 10:54:55;;;;;;;43.70;26.35;;;19.90;49.20;;;;;;5082469;28;20046;-53
2021/03/31 10:57:21;;;;;;;38.88;25.00;;;20.00;49.50;;;;;;5086086;28;20408;-52
2021/03/31 10:59:47;;;;;;;39.03;25.95;;;20.10;49.70;;;;;;5086259;28;20044;-55
2021/03/31 11:02:13;;;;;;;37.67;25.10;;;20.20;50.20;;;;;;5086135;28;20081;-54
2021/03/31 11:04:39;;;;;;;43.15;25.80;;;20.30;50.20;;;;;;5083344;28;20040;-54
2021/03/31 11:07:05;;;;;;;39.72;26.65;;;20.40;49.20;;;;;;5089116;28;20050;-54
2021/03/31 11:09:31;;;;;;;36.03;24.52;;;20.50;48.10;;;;;;5088499;28;20036;-54
2021/03/31 11:11:57;;;;;;;39.10;24.95;;;20.60;48.80;;;;;;5068499;28;20047;-55
2021/03/31 11:14:23;;;;;;;35.63;23.50;;;20.70;48.80;;;;;;5081218;28;20474;-55
2021/03/31 11:17:02;;;;;;;38.15;24.73;;;20.80;48.50;;;;;;5080342;28;20155;-54
2021/03/31 11:25:35;;;;;;;36.47;23.25;;;20.80;48.20;;;;;;5084447;28;20044;-54
2021/03/31 11:27:36;;;;;;;35.50;22.75;;;20.80;48.70;;;;;;5077793;28;20235;-54
2021/03/31 11:30:03;;;;;;;36.70;23.63;;;20.90;47.30;;;;;;5085902;28;20417;-54
2021/03/31 11:32:30;;;;;;;38.33;22.95;;;21.00;47.30;;;;;;5090407;28;20061;-55
2021/03/31 11:35:16;;;;;;;37.92;24.27;;;21.00;47.60;;;;;;5091742;28;20170;-53
2021/03/31 11:37:42;;;;;;;41.65;25.23;;;21.00;48.00;;;;;;5093935;28;20130;-54
2021/03/31 11:40:08;;;;;;;38.80;25.10;;;21.20;47.00;;;;;;5094760;28;20036;-55
2021/03/31 11:42:34;;;;;;;43.63;27.55;;;21.30;46.50;;;;;;5092480;28;20492;-55
2021/03/31 11:45:19;;;;;;;39.85;26.67;;;21.40;45.60;;;;;;5091714;28;20047;-55
2021/03/31 11:47:45;;;;;;;41.03;27.38;;;21.40;45.50;;;;;;5091651;28;20032;-53
2021/03/31 11:50:31;;;;;;;41.67;26.25;;;21.50;46.20;;;;;;5076925;28;20040;-53
2021/03/31 11:53:17;;;;;;;44.38;27.08;;;21.60;45.40;;;;;;5089057;28;20036;-55
2021/03/31 11:56:03;;;;;;;42.55;25.23;;;21.70;45.00;;;;;;5063224;28;20064;-54
2021/03/31 11:58:28;;;;;;;40.20;26.67;;;21.80;44.80;;;;;;5091396;28;20036;-54
2021/03/31 12:01:14;;;;;;;36.85;24.35;;;21.90;45.20;;;;;;5091283;28;20051;-55
2021/03/31 12:03:40;;;;;;;43.28;26.25;;;22.00;45.30;;;;;;5090520;28;20036;-55
2021/03/31 12:06:26;;;;;;;38.33;26.38;;;22.10;44.80;;;;;;5090760;28;20501;-54
2021/03/31 12:08:53;;;;;;;39.65;25.83;;;22.10;44.50;;;;;;5093661;28;20075;-54
2021/03/31 12:11:19;;;;;;;36.00;24.20;;;22.20;45.40;;;;;;5093293;28;20035;-54
2021/03/31 12:14:04;;;;;;;41.28;23.48;;;22.20;45.80;;;;;;5085741;28;20078;-56
2021/03/31 12:16:30;;;;;;;37.83;22.42;;;22.10;45.00;;;;;;5093158;28;20044;-56
2021/03/31 12:19:16;;;;;;;41.85;22.63;;;22.10;44.70;;;;;;5092353;28;20040;-56
2021/03/31 12:21:41;;;;;;;37.75;22.45;;;22.10;43.50;;;;;;5093565;28;20384;-56
2021/03/31 12:24:08;;;;;;;40.33;23.13;;;22.20;43.10;;;;;;5094807;28;20115;-56
2021/03/31 12:26:34;;;;;;;38.38;23.98;;;22.10;42.60;;;;;;5092760;28;20499;-55
2021/03/31 12:29:00;;;;;;;39.78;22.73;;;22.10;43.10;;;;;;5095108;28;20047;-56
2021/03/31 12:31:25;;;;;;;38.85;21.27;;;22.20;42.50;;;;;;5093866;28;20477;-55
2021/03/31 12:33:51;;;;;;;36.85;22.25;;;22.20;39.90;;;;;;5092908;28;20450;-54
2021/03/31 12:36:18;;;;;;;37.58;21.50;;;22.20;39.90;;;;;;5090892;28;20549;-56
2021/03/31 12:38:44;;;;;;;40.38;22.05;;;22.20;39.70;;;;;;5093447;28;20048;-56
2021/03/31 12:41:09;;;;;;;35.53;21.08;;;22.20;40.00;;;;;;5092175;28;20047;-53
2021/03/31 12:43:55;;;;;;;38.75;22.52;;;22.20;39.50;;;;;;5086287;28;20130;-56
2021/03/31 12:46:42;;;;;;;28.95;18.05;;;22.30;39.40;;;;;;5090771;28;20109;-56
2021/03/31 12:49:07;;;;;;;34.72;20.13;;;22.40;39.40;;;;;;5092072;28;20044;-56
2021/03/31 12:51:56;;;;;;;33.80;21.77;;;22.30;39.70;;;;;;5088597;28;20083;-56
2021/03/31 12:56:48;;;;;;;31.60;21.00;;;22.40;39.30;;;;;;5092401;28;20051;-55
2021/03/31 12:59:14;;;;;;;40.63;23.65;;;22.40;39.00;;;;;;5094224;28;20043;-56
2021/03/31 13:01:40;;;;;;;33.28;19.67;;;22.50;38.90;;;;;;5092045;28;20055;-56
2021/03/31 13:04:26;;;;;;;33.45;21.60;;;22.50;39.20;;;;;;5082623;28;20047;-56
2021/03/31 13:06:52;;;;;;;38.35;23.52;;;22.60;37.90;;;;;;5091893;28;20043;-56